sensor_id;sensor_type;location;lat;lon;timestamp;P1;durP1;ratioP1;P2;durP2;ratioP2
43962;SDS011;29622;45.534;9.242;2023-02-28T00:02:08;12.32;;;4.25;;
43962;SDS011;29622;45.534;9.242;2023-02-28T00:07:09;11.45;;;5.82;;
43962;SDS011;29622;45.534;9.242;2023-02-28T00:12:10;13.10;;;4.57;;
43962;SDS011;29622;45.534;9.242;2023-02-28T00:17:10;7.47;;;3.85;;
43962;SDS011;29622;45.534;9.242;2023-02-28T00:22:11;7.20;;;3.85;;
43962;SDS011;29622;45.534;9.242;2023-02-28T00:27:12;8.68;;;4.30;;
43962;SDS011;29622;45.534;9.242;2023-02-28T00:32:13;8.93;;;4.32;;
43962;SDS011;29622;45.534;9.242;2023-02-28T00:37:14;7.13;;;4.13;;
43962;SDS011;29622;45.534;9.242;2023-02-28T00:42:14;9.20;;;3.65;;
43962;SDS011;29622;45.534;9.242;2023-02-28T00:47:15;7.90;;;4.63;;
43962;SDS011;29622;45.534;9.242;2023-02-28T00:52:17;6.88;;;3.95;;
43962;SDS011;29622;45.534;9.242;2023-02-28T00:57:17;8.90;;;4.88;;
43962;SDS011;29622;45.534;9.242;2023-02-28T01:02:18;11.32;;;4.05;;
43962;SDS011;29622;45.534;9.242;2023-02-28T01:07:19;10.73;;;4.47;;
43962;SDS011;29622;45.534;9.242;2023-02-28T01:12:20;8.23;;;4.55;;
43962;SDS011;29622;45.534;9.242;2023-02-28T01:17:21;10.73;;;4.93;;
43962;SDS011;29622;45.534;9.242;2023-02-28T01:22:21;6.78;;;3.47;;
43962;SDS011;29622;45.534;9.242;2023-02-28T01:27:22;10.68;;;4.72;;
43962;SDS011;29622;45.534;9.242;2023-02-28T01:32:23;10.35;;;5.13;;
43962;SDS011;29622;45.534;9.242;2023-02-28T01:37:24;14.68;;;5.63;;
43962;SDS011;29622;45.534;9.242;2023-02-28T01:42:24;9.43;;;4.97;;
43962;SDS011;29622;45.534;9.242;2023-02-28T01:47:35;11.80;;;4.80;;
43962;SDS011;29622;45.534;9.242;2023-02-28T01:52:40;13.30;;;5.80;;
43962;SDS011;29622;45.534;9.242;2023-02-28T01:57:45;13.35;;;5.10;;
43962;SDS011;29622;45.534;9.242;2023-02-28T02:02:51;11.75;;;4.97;;
43962;SDS011;29622;45.534;9.242;2023-02-28T02:07:56;14.60;;;5.65;;
43962;SDS011;29622;45.534;9.242;2023-02-28T02:23:31;20.60;;;4.30;;
43962;SDS011;29622;45.534;9.242;2023-02-28T02:44:36;10.10;;;4.57;;
43962;SDS011;29622;45.534;9.242;2023-02-28T02:50:10;9.73;;;4.32;;
43962;SDS011;29622;45.534;9.242;2023-02-28T02:55:15;12.60;;;4.47;;
43962;SDS011;29622;45.534;9.242;2023-02-28T03:00:18;9.13;;;4.47;;
43962;SDS011;29622;45.534;9.242;2023-02-28T03:05:24;9.05;;;4.22;;
43962;SDS011;29622;45.534;9.242;2023-02-28T03:10:32;9.43;;;4.72;;
43962;SDS011;29622;45.534;9.242;2023-02-28T03:15:43;14.68;;;4.65;;
43962;SDS011;29622;45.534;9.242;2023-02-28T03:20:59;13.95;;;4.43;;
43962;SDS011;29622;45.534;9.242;2023-02-28T03:26:04;10.95;;;4.97;;
43962;SDS011;29622;45.534;9.242;2023-02-28T03:31:16;11.70;;;5.32;;
43962;SDS011;29622;45.534;9.242;2023-02-28T03:36:23;10.90;;;5.10;;
43962;SDS011;29622;45.534;9.242;2023-02-28T03:41:35;9.73;;;5.88;;
43962;SDS011;29622;45.534;9.242;2023-02-28T03:46:40;9.80;;;4.85;;
43962;SDS011;29622;45.534;9.242;2023-02-28T03:51:46;9.27;;;4.40;;
43962;SDS011;29622;45.534;9.242;2023-02-28T03:57:07;11.02;;;6.07;;
43962;SDS011;29622;45.534;9.242;2023-02-28T04:02:23;8.75;;;4.75;;
43962;SDS011;29622;45.534;9.242;2023-02-28T04:07:24;9.07;;;4.90;;
43962;SDS011;29622;45.534;9.242;2023-02-28T04:12:25;13.52;;;4.90;;
43962;SDS011;29622;45.534;9.242;2023-02-28T04:17:26;12.63;;;5.00;;
43962;SDS011;29622;45.534;9.242;2023-02-28T04:22:27;12.32;;;4.57;;
43962;SDS011;29622;45.534;9.242;2023-02-28T04:27:27;14.02;;;5.50;;
43962;SDS011;29622;45.534;9.242;2023-02-28T04:32:28;10.90;;;5.00;;
43962;SDS011;29622;45.534;9.242;2023-02-28T04:37:29;13.38;;;5.63;;
43962;SDS011;29622;45.534;9.242;2023-02-28T04:42:29;11.75;;;5.40;;
43962;SDS011;29622;45.534;9.242;2023-02-28T04:47:36;10.70;;;5.22;;
43962;SDS011;29622;45.534;9.242;2023-02-28T04:52:36;13.13;;;4.65;;
43962;SDS011;29622;45.534;9.242;2023-02-28T04:57:37;9.95;;;5.30;;
43962;SDS011;29622;45.534;9.242;2023-02-28T05:02:38;15.57;;;5.68;;
43962;SDS011;29622;45.534;9.242;2023-02-28T05:07:39;11.02;;;5.70;;
43962;SDS011;29622;45.534;9.242;2023-02-28T05:12:40;12.20;;;6.10;;
43962;SDS011;29622;45.534;9.242;2023-02-28T05:17:40;16.25;;;5.47;;
43962;SDS011;29622;45.534;9.242;2023-02-28T05:22:41;16.80;;;5.80;;
43962;SDS011;29622;45.534;9.242;2023-02-28T05:27:42;10.20;;;5.25;;
43962;SDS011;29622;45.534;9.242;2023-02-28T05:32:43;17.10;;;5.20;;
43962;SDS011;29622;45.534;9.242;2023-02-28T05:37:44;11.32;;;5.75;;
43962;SDS011;29622;45.534;9.242;2023-02-28T05:42:44;13.85;;;5.32;;
43962;SDS011;29622;45.534;9.242;2023-02-28T05:47:45;13.45;;;5.35;;
43962;SDS011;29622;45.534;9.242;2023-02-28T05:52:49;10.88;;;5.90;;
43962;SDS011;29622;45.534;9.242;2023-02-28T05:57:50;11.25;;;6.55;;
43962;SDS011;29622;45.534;9.242;2023-02-28T06:02:51;9.85;;;5.97;;
43962;SDS011;29622;45.534;9.242;2023-02-28T06:07:56;16.98;;;5.85;;
43962;SDS011;29622;45.534;9.242;2023-02-28T06:12:59;19.42;;;7.00;;
43962;SDS011;29622;45.534;9.242;2023-02-28T06:18:02;13.63;;;6.70;;
43962;SDS011;29622;45.534;9.242;2023-02-28T06:23:03;14.50;;;6.45;;
43962;SDS011;29622;45.534;9.242;2023-02-28T06:28:03;19.13;;;7.03;;
43962;SDS011;29622;45.534;9.242;2023-02-28T06:33:04;16.38;;;7.18;;
43962;SDS011;29622;45.534;9.242;2023-02-28T06:38:05;16.48;;;6.20;;
43962;SDS011;29622;45.534;9.242;2023-02-28T06:43:05;11.15;;;4.80;;
43962;SDS011;29622;45.534;9.242;2023-02-28T06:48:06;12.00;;;7.05;;
43962;SDS011;29622;45.534;9.242;2023-02-28T06:53:07;16.77;;;7.68;;
43962;SDS011;29622;45.534;9.242;2023-02-28T06:58:08;17.20;;;7.35;;
43962;SDS011;29622;45.534;9.242;2023-02-28T07:03:29;17.75;;;8.30;;
43962;SDS011;29622;45.534;9.242;2023-02-28T07:08:30;18.48;;;5.75;;
43962;SDS011;29622;45.534;9.242;2023-02-28T07:13:31;18.15;;;8.25;;
43962;SDS011;29622;45.534;9.242;2023-02-28T07:18:41;14.52;;;3.85;;
43962;SDS011;29622;45.534;9.242;2023-02-28T07:23:58;21.83;;;8.52;;
43962;SDS011;29622;45.534;9.242;2023-02-28T07:28:59;16.48;;;8.00;;
43962;SDS011;29622;45.534;9.242;2023-02-28T07:34:09;19.60;;;8.68;;
43962;SDS011;29622;45.534;9.242;2023-02-28T07:39:19;18.23;;;9.05;;
43962;SDS011;29622;45.534;9.242;2023-02-28T07:44:21;17.15;;;8.93;;
43962;SDS011;29622;45.534;9.242;2023-02-28T07:49:22;14.52;;;7.20;;
43962;SDS011;29622;45.534;9.242;2023-02-28T07:54:23;20.98;;;9.57;;
43962;SDS011;29622;45.534;9.242;2023-02-28T07:59:24;21.33;;;9.73;;
43962;SDS011;29622;45.534;9.242;2023-02-28T08:04:25;22.27;;;9.57;;
43962;SDS011;29622;45.534;9.242;2023-02-28T08:09:26;14.98;;;6.63;;
43962;SDS011;29622;45.534;9.242;2023-02-28T08:14:30;32.33;;;8.30;;
43962;SDS011;29622;45.534;9.242;2023-02-28T08:19:35;27.00;;;8.23;;
43962;SDS011;29622;45.534;9.242;2023-02-28T08:24:40;18.15;;;8.50;;
43962;SDS011;29622;45.534;9.242;2023-02-28T08:29:55;49.38;;;9.48;;
43962;SDS011;29622;45.534;9.242;2023-02-28T08:34:56;18.02;;;7.90;;
43962;SDS011;29622;45.534;9.242;2023-02-28T08:39:57;15.48;;;4.13;;
43962;SDS011;29622;45.534;9.242;2023-02-28T08:45:04;18.67;;;8.05;;
43962;SDS011;29622;45.534;9.242;2023-02-28T08:50:06;18.10;;;8.95;;
43962;SDS011;29622;45.534;9.242;2023-02-28T08:55:08;24.25;;;8.68;;
43962;SDS011;29622;45.534;9.242;2023-02-28T09:00:10;22.15;;;4.30;;
43962;SDS011;29622;45.534;9.242;2023-02-28T09:05:14;15.48;;;6.80;;
43962;SDS011;29622;45.534;9.242;2023-02-28T09:10:16;25.45;;;9.90;;
43962;SDS011;29622;45.534;9.242;2023-02-28T09:15:26;22.38;;;9.65;;
43962;SDS011;29622;45.534;9.242;2023-02-28T09:20:26;13.13;;;6.50;;
43962;SDS011;29622;45.534;9.242;2023-02-28T09:25:28;27.20;;;5.80;;
43962;SDS011;29622;45.534;9.242;2023-02-28T09:30:28;15.10;;;5.32;;
43962;SDS011;29622;45.534;9.242;2023-02-28T09:35:34;13.38;;;7.18;;
43962;SDS011;29622;45.534;9.242;2023-02-28T09:46:51;14.35;;;8.93;;
43962;SDS011;29622;45.534;9.242;2023-02-28T09:52:59;20.00;;;7.63;;
43962;SDS011;29622;45.534;9.242;2023-02-28T09:58:04;18.55;;;9.63;;
43962;SDS011;29622;45.534;9.242;2023-02-28T10:03:52;16.30;;;9.00;;
43962;SDS011;29622;45.534;9.242;2023-02-28T10:09:25;19.73;;;8.75;;
43962;SDS011;29622;45.534;9.242;2023-02-28T10:14:45;14.68;;;8.25;;
43962;SDS011;29622;45.534;9.242;2023-02-28T10:20:27;19.02;;;6.70;;
43962;SDS011;29622;45.534;9.242;2023-02-28T10:25:38;17.70;;;7.68;;
43962;SDS011;29622;45.534;9.242;2023-02-28T10:30:41;17.30;;;8.27;;
43962;SDS011;29622;45.534;9.242;2023-02-28T10:35:45;16.40;;;8.45;;
43962;SDS011;29622;45.534;9.242;2023-02-28T10:40:46;21.00;;;9.57;;
43962;SDS011;29622;45.534;9.242;2023-02-28T10:46:02;16.13;;;8.70;;
43962;SDS011;29622;45.534;9.242;2023-02-28T10:51:10;11.55;;;4.60;;
43962;SDS011;29622;45.534;9.242;2023-02-28T10:56:19;15.20;;;8.60;;
43962;SDS011;29622;45.534;9.242;2023-02-28T11:01:22;21.10;;;9.23;;
43962;SDS011;29622;45.534;9.242;2023-02-28T11:06:32;9.18;;;4.15;;
43962;SDS011;29622;45.534;9.242;2023-02-28T11:11:42;18.63;;;9.90;;
43962;SDS011;29622;45.534;9.242;2023-02-28T11:16:45;14.85;;;7.97;;
43962;SDS011;29622;45.534;9.242;2023-02-28T11:21:48;15.73;;;9.52;;
43962;SDS011;29622;45.534;9.242;2023-02-28T11:26:56;18.67;;;9.68;;
43962;SDS011;29622;45.534;9.242;2023-02-28T11:32:02;20.17;;;10.88;;
43962;SDS011;29622;45.534;9.242;2023-02-28T11:37:11;14.55;;;8.50;;
43962;SDS011;29622;45.534;9.242;2023-02-28T11:48:02;18.42;;;9.68;;
43962;SDS011;29622;45.534;9.242;2023-02-28T11:53:45;17.25;;;10.57;;
43962;SDS011;29622;45.534;9.242;2023-02-28T11:59:05;16.00;;;8.25;;
43962;SDS011;29622;45.534;9.242;2023-02-28T12:15:17;9.90;;;4.45;;
43962;SDS011;29622;45.534;9.242;2023-02-28T12:20:52;16.50;;;9.23;;
43962;SDS011;29622;45.534;9.242;2023-02-28T12:26:13;17.92;;;8.88;;
43962;SDS011;29622;45.534;9.242;2023-02-28T12:31:36;18.67;;;11.05;;
43962;SDS011;29622;45.534;9.242;2023-02-28T12:36:42;20.45;;;10.82;;
43962;SDS011;29622;45.534;9.242;2023-02-28T12:41:47;10.90;;;6.40;;
43962;SDS011;29622;45.534;9.242;2023-02-28T12:46:57;15.80;;;5.68;;
43962;SDS011;29622;45.534;9.242;2023-02-28T12:52:02;20.88;;;10.68;;
43962;SDS011;29622;45.534;9.242;2023-02-28T13:13:42;14.73;;;7.75;;
43962;SDS011;29622;45.534;9.242;2023-02-28T13:18:45;10.93;;;5.10;;
43962;SDS011;29622;45.534;9.242;2023-02-28T13:34:20;17.40;;;11.18;;
43962;SDS011;29622;45.534;9.242;2023-02-28T13:44:45;17.45;;;11.13;;
43962;SDS011;29622;45.534;9.242;2023-02-28T13:55:28;23.38;;;11.65;;
43962;SDS011;29622;45.534;9.242;2023-02-28T14:06:26;19.48;;;11.38;;
43962;SDS011;29622;45.534;9.242;2023-02-28T14:11:34;19.97;;;11.13;;
43962;SDS011;29622;45.534;9.242;2023-02-28T14:16:48;16.33;;;9.35;;
43962;SDS011;29622;45.534;9.242;2023-02-28T14:37:37;18.83;;;11.43;;
43962;SDS011;29622;45.534;9.242;2023-02-28T14:42:45;15.02;;;5.85;;
43962;SDS011;29622;45.534;9.242;2023-02-28T14:47:49;8.77;;;4.13;;
43962;SDS011;29622;45.534;9.242;2023-02-28T14:52:52;16.35;;;6.50;;
43962;SDS011;29622;45.534;9.242;2023-02-28T14:57:55;16.45;;;9.00;;
43962;SDS011;29622;45.534;9.242;2023-02-28T15:02:59;19.15;;;11.18;;
43962;SDS011;29622;45.534;9.242;2023-02-28T15:08:11;12.77;;;7.40;;
43962;SDS011;29622;45.534;9.242;2023-02-28T15:13:14;9.48;;;4.55;;
43962;SDS011;29622;45.534;9.242;2023-02-28T15:23:29;17.85;;;10.10;;
43962;SDS011;29622;45.534;9.242;2023-02-28T15:28:30;18.35;;;11.27;;
43962;SDS011;29622;45.534;9.242;2023-02-28T15:33:32;17.17;;;10.13;;
43962;SDS011;29622;45.534;9.242;2023-02-28T15:38:35;18.10;;;8.32;;
43962;SDS011;29622;45.534;9.242;2023-02-28T15:43:37;17.98;;;8.55;;
43962;SDS011;29622;45.534;9.242;2023-02-28T15:48:43;22.27;;;11.85;;
43962;SDS011;29622;45.534;9.242;2023-02-28T15:53:51;21.67;;;11.90;;
43962;SDS011;29622;45.534;9.242;2023-02-28T15:58:56;19.95;;;11.38;;
43962;SDS011;29622;45.534;9.242;2023-02-28T16:04:17;21.05;;;12.00;;
43962;SDS011;29622;45.534;9.242;2023-02-28T16:09:19;22.88;;;12.07;;
43962;SDS011;29622;45.534;9.242;2023-02-28T16:14:22;18.77;;;9.98;;
43962;SDS011;29622;45.534;9.242;2023-02-28T16:19:27;19.35;;;12.30;;
43962;SDS011;29622;45.534;9.242;2023-02-28T16:24:32;22.73;;;11.40;;
43962;SDS011;29622;45.534;9.242;2023-02-28T16:29:42;25.00;;;12.63;;
43962;SDS011;29622;45.534;9.242;2023-02-28T16:34:46;20.45;;;12.23;;
43962;SDS011;29622;45.534;9.242;2023-02-28T16:39:50;22.95;;;11.73;;
43962;SDS011;29622;45.534;9.242;2023-02-28T16:44:52;28.48;;;12.95;;
43962;SDS011;29622;45.534;9.242;2023-02-28T16:49:54;21.15;;;12.05;;
43962;SDS011;29622;45.534;9.242;2023-02-28T16:54:55;23.15;;;12.55;;
43962;SDS011;29622;45.534;9.242;2023-02-28T16:59:56;21.45;;;12.60;;
43962;SDS011;29622;45.534;9.242;2023-02-28T17:04:57;21.83;;;12.20;;
43962;SDS011;29622;45.534;9.242;2023-02-28T17:09:59;22.73;;;12.82;;
43962;SDS011;29622;45.534;9.242;2023-02-28T17:15:09;25.77;;;11.75;;
43962;SDS011;29622;45.534;9.242;2023-02-28T17:20:15;25.02;;;12.80;;
43962;SDS011;29622;45.534;9.242;2023-02-28T17:25:18;25.35;;;12.93;;
43962;SDS011;29622;45.534;9.242;2023-02-28T17:30:23;23.17;;;10.02;;
43962;SDS011;29622;45.534;9.242;2023-02-28T17:35:29;28.25;;;14.43;;
43962;SDS011;29622;45.534;9.242;2023-02-28T17:40:30;19.83;;;10.57;;
43962;SDS011;29622;45.534;9.242;2023-02-28T17:45:31;24.55;;;12.63;;
43962;SDS011;29622;45.534;9.242;2023-02-28T17:50:34;18.77;;;8.35;;
43962;SDS011;29622;45.534;9.242;2023-02-28T17:55:38;22.85;;;12.50;;
43962;SDS011;29622;45.534;9.242;2023-02-28T18:00:38;24.30;;;13.57;;
43962;SDS011;29622;45.534;9.242;2023-02-28T18:05:40;22.05;;;12.60;;
43962;SDS011;29622;45.534;9.242;2023-02-28T18:10:41;23.52;;;12.63;;
43962;SDS011;29622;45.534;9.242;2023-02-28T18:15:42;37.03;;;14.95;;
43962;SDS011;29622;45.534;9.242;2023-02-28T18:20:43;27.60;;;13.85;;
43962;SDS011;29622;45.534;9.242;2023-02-28T18:25:44;21.08;;;11.88;;
43962;SDS011;29622;45.534;9.242;2023-02-28T18:30:45;30.40;;;13.95;;
43962;SDS011;29622;45.534;9.242;2023-02-28T18:35:53;25.90;;;13.25;;
43962;SDS011;29622;45.534;9.242;2023-02-28T18:46:02;22.95;;;12.65;;
43962;SDS011;29622;45.534;9.242;2023-02-28T18:51:08;30.13;;;12.35;;
43962;SDS011;29622;45.534;9.242;2023-02-28T18:56:15;23.70;;;11.75;;
43962;SDS011;29622;45.534;9.242;2023-02-28T19:01:23;24.63;;;12.13;;
43962;SDS011;29622;45.534;9.242;2023-02-28T19:06:31;24.50;;;13.85;;
43962;SDS011;29622;45.534;9.242;2023-02-28T19:11:33;30.50;;;15.60;;
43962;SDS011;29622;45.534;9.242;2023-02-28T19:16:34;25.30;;;13.88;;
43962;SDS011;29622;45.534;9.242;2023-02-28T19:21:35;32.13;;;15.70;;
43962;SDS011;29622;45.534;9.242;2023-02-28T19:26:36;27.50;;;13.93;;
43962;SDS011;29622;45.534;9.242;2023-02-28T19:31:36;30.30;;;14.68;;
43962;SDS011;29622;45.534;9.242;2023-02-28T19:36:37;28.88;;;13.50;;
43962;SDS011;29622;45.534;9.242;2023-02-28T19:41:38;33.75;;;15.02;;
43962;SDS011;29622;45.534;9.242;2023-02-28T19:46:38;24.88;;;13.57;;
43962;SDS011;29622;45.534;9.242;2023-02-28T19:51:39;30.27;;;15.82;;
43962;SDS011;29622;45.534;9.242;2023-02-28T19:56:40;29.85;;;14.35;;
43962;SDS011;29622;45.534;9.242;2023-02-28T20:01:41;24.90;;;13.75;;
43962;SDS011;29622;45.534;9.242;2023-02-28T20:06:41;32.60;;;14.38;;
43962;SDS011;29622;45.534;9.242;2023-02-28T20:11:42;33.20;;;14.60;;
43962;SDS011;29622;45.534;9.242;2023-02-28T20:16:44;23.70;;;13.32;;
43962;SDS011;29622;45.534;9.242;2023-02-28T20:21:45;27.52;;;14.90;;
43962;SDS011;29622;45.534;9.242;2023-02-28T20:26:45;28.40;;;14.85;;
43962;SDS011;29622;45.534;9.242;2023-02-28T20:31:46;38.00;;;19.10;;
43962;SDS011;29622;45.534;9.242;2023-02-28T20:36:47;45.10;;;18.85;;
43962;SDS011;29622;45.534;9.242;2023-02-28T20:41:48;35.95;;;16.88;;
43962;SDS011;29622;45.534;9.242;2023-02-28T20:46:48;29.73;;;16.25;;
43962;SDS011;29622;45.534;9.242;2023-02-28T20:51:49;30.00;;;14.13;;
43962;SDS011;29622;45.534;9.242;2023-02-28T20:56:50;33.00;;;16.85;;
43962;SDS011;29622;45.534;9.242;2023-02-28T21:01:51;33.85;;;16.75;;
43962;SDS011;29622;45.534;9.242;2023-02-28T21:06:51;35.60;;;16.67;;
43962;SDS011;29622;45.534;9.242;2023-02-28T21:11:52;30.25;;;15.75;;
43962;SDS011;29622;45.534;9.242;2023-02-28T21:16:54;34.95;;;17.42;;
43962;SDS011;29622;45.534;9.242;2023-02-28T21:21:54;32.33;;;16.10;;
43962;SDS011;29622;45.534;9.242;2023-02-28T21:26:55;31.75;;;16.52;;
43962;SDS011;29622;45.534;9.242;2023-02-28T21:32:00;35.97;;;16.83;;
43962;SDS011;29622;45.534;9.242;2023-02-28T21:37:01;33.80;;;16.45;;
43962;SDS011;29622;45.534;9.242;2023-02-28T21:42:01;34.05;;;15.93;;
43962;SDS011;29622;45.534;9.242;2023-02-28T21:47:03;36.38;;;17.55;;
43962;SDS011;29622;45.534;9.242;2023-02-28T21:52:04;32.85;;;17.20;;
43962;SDS011;29622;45.534;9.242;2023-02-28T21:57:05;39.38;;;19.17;;
43962;SDS011;29622;45.534;9.242;2023-02-28T22:02:07;32.17;;;17.75;;
43962;SDS011;29622;45.534;9.242;2023-02-28T22:07:09;36.35;;;18.02;;
43962;SDS011;29622;45.534;9.242;2023-02-28T22:12:10;37.15;;;19.02;;
43962;SDS011;29622;45.534;9.242;2023-02-28T22:17:10;40.50;;;19.25;;
43962;SDS011;29622;45.534;9.242;2023-02-28T22:22:11;39.53;;;18.98;;
43962;SDS011;29622;45.534;9.242;2023-02-28T22:27:12;35.17;;;19.05;;
43962;SDS011;29622;45.534;9.242;2023-02-28T22:32:12;37.55;;;19.23;;
43962;SDS011;29622;45.534;9.242;2023-02-28T22:37:14;35.72;;;18.73;;
43962;SDS011;29622;45.534;9.242;2023-02-28T22:42:14;45.10;;;18.92;;
43962;SDS011;29622;45.534;9.242;2023-02-28T22:47:15;40.53;;;18.55;;
43962;SDS011;29622;45.534;9.242;2023-02-28T22:52:16;39.67;;;18.77;;
43962;SDS011;29622;45.534;9.242;2023-02-28T22:57:16;37.38;;;20.27;;
43962;SDS011;29622;45.534;9.242;2023-02-28T23:02:17;41.25;;;20.80;;
43962;SDS011;29622;45.534;9.242;2023-02-28T23:07:18;37.47;;;18.40;;
43962;SDS011;29622;45.534;9.242;2023-02-28T23:12:18;41.13;;;20.17;;
43962;SDS011;29622;45.534;9.242;2023-02-28T23:17:19;40.75;;;19.95;;
43962;SDS011;29622;45.534;9.242;2023-02-28T23:22:20;34.47;;;18.80;;
43962;SDS011;29622;45.534;9.242;2023-02-28T23:27:20;41.50;;;20.30;;
43962;SDS011;29622;45.534;9.242;2023-02-28T23:32:21;43.42;;;21.33;;
43962;SDS011;29622;45.534;9.242;2023-02-28T23:37:22;48.45;;;19.90;;
43962;SDS011;29622;45.534;9.242;2023-02-28T23:42:22;40.63;;;20.63;;
43962;SDS011;29622;45.534;9.242;2023-02-28T23:47:23;46.22;;;22.10;;
43962;SDS011;29622;45.534;9.242;2023-02-28T23:52:24;44.08;;;23.63;;
43962;SDS011;29622;45.534;9.242;2023-02-28T23:57:24;42.85;;;22.50;;
